Time;durP1;ratioP1;P1;durP2;ratioP2;P2;SDS_P1;SDS_P2;PMS_P1;PMS_P2;Temp;Humidity;BMP_temperature;BMP_pressure;BME280_temperature;BME280_humidity;BME280_pressure;Samples;Min_cycle;Max_cycle;Signal;HPM_P1;HPM_P2
2022/03/08 00:01:02;;;;;;;5.22;2.67;;;0.50;99.90;;;;;;5020018;28;22097;-75
2022/03/08 00:03:28;;;;;;;4.20;2.30;;;0.50;99.90;;;;;;5019815;28;20033;-75
2022/03/08 00:05:54;;;;;;;5.72;2.42;;;0.40;99.90;;;;;;5013196;28;20095;-75
2022/03/08 00:08:20;;;;;;;5.03;2.58;;;0.40;99.90;;;;;;5013518;28;20041;-75
2022/03/08 00:10:46;;;;;;;3.60;2.35;;;0.40;99.90;;;;;;5013799;28;20480;-75
2022/03/08 00:13:11;;;;;;;5.68;2.20;;;0.50;99.90;;;;;;4996572;28;20029;-75
2022/03/08 00:15:37;;;;;;;5.97;3.05;;;0.40;99.90;;;;;;5035627;28;22105;-76
2022/03/08 00:18:03;;;;;;;5.40;2.90;;;0.50;99.90;;;;;;5020921;28;20643;-76
2022/03/08 00:20:30;;;;;;;4.03;2.53;;;0.50;99.90;;;;;;5013254;28;20033;-75
2022/03/08 00:22:57;;;;;;;4.10;2.20;;;0.50;99.90;;;;;;5019902;28;20272;-75
2022/03/08 00:25:23;;;;;;;3.75;1.63;;;0.50;99.90;;;;;;5028926;28;20021;-76
2022/03/08 00:27:49;;;;;;;3.70;1.75;;;0.40;99.90;;;;;;5036507;28;20050;-75
2022/03/08 00:30:17;;;;;;;5.20;1.88;;;0.50;99.90;;;;;;5028233;28;20479;-75
2022/03/08 00:32:44;;;;;;;4.68;2.55;;;0.50;99.90;;;;;;4997576;28;20060;-75
2022/03/08 00:35:10;;;;;;;4.38;2.40;;;0.50;99.90;;;;;;5020043;28;20489;-75
2022/03/08 00:37:36;;;;;;;4.85;1.80;;;0.40;99.90;;;;;;5029228;28;20087;-75
2022/03/08 00:40:07;;;;;;;4.80;2.45;;;0.40;99.90;;;;;;5018784;28;20032;-75
2022/03/08 00:42:32;;;;;;;3.97;2.38;;;0.50;99.90;;;;;;5017778;28;20118;-75
2022/03/08 00:44:58;;;;;;;4.25;2.00;;;0.40;99.90;;;;;;5020553;28;20067;-75
2022/03/08 00:47:24;;;;;;;4.72;2.10;;;0.50;99.90;;;;;;5019403;28;20041;-75
2022/03/08 00:49:50;;;;;;;3.88;2.42;;;0.50;99.90;;;;;;5019268;28;20033;-75
2022/03/08 00:52:16;;;;;;;5.35;2.40;;;0.40;99.90;;;;;;5013311;28;20042;-75
2022/03/08 00:54:42;;;;;;;3.17;1.50;;;0.40;99.90;;;;;;5012447;28;20505;-75
2022/03/08 00:57:07;;;;;;;4.05;1.70;;;0.30;99.90;;;;;;5023775;28;20246;-75
2022/03/08 00:59:33;;;;;;;5.38;1.88;;;0.30;99.90;;;;;;5023844;28;20024;-76
2022/03/08 01:01:59;;;;;;;5.65;2.05;;;0.20;99.90;;;;;;5029420;28;20048;-75
2022/03/08 01:04:25;;;;;;;3.88;1.55;;;0.10;99.90;;;;;;4995589;28;20029;-75
2022/03/08 01:06:51;;;;;;;3.10;1.40;;;0.10;99.90;;;;;;5019400;28;20033;-75
2022/03/08 01:09:16;;;;;;;4.15;1.30;;;0.10;99.90;;;;;;5012124;28;20029;-75
2022/03/08 01:11:42;;;;;;;4.90;1.80;;;0.00;99.90;;;;;;5025152;28;20648;-76
2022/03/08 01:14:09;;;;;;;4.38;1.42;;;0.00;99.90;;;;;;5018373;28;20343;-75
2022/03/08 01:16:36;;;;;;;2.90;1.50;;;-0.10;99.90;;;;;;5028169;28;20505;-75
2022/03/08 01:19:04;;;;;;;3.15;1.40;;;-0.20;99.90;;;;;;5018949;28;20076;-76
2022/03/08 01:21:30;;;;;;;3.35;1.48;;;-0.10;99.90;;;;;;5019348;28;20042;-75
2022/03/08 01:23:56;;;;;;;3.08;1.20;;;-0.20;99.90;;;;;;5010798;28;20030;-75
2022/03/08 01:26:21;;;;;;;2.67;1.33;;;-0.20;99.90;;;;;;5023168;28;20025;-76
2022/03/08 01:28:47;;;;;;;2.50;0.98;;;-0.20;99.90;;;;;;5018754;28;20488;-76
2022/03/08 01:31:13;;;;;;;2.95;1.20;;;-0.20;99.90;;;;;;5018829;28;20624;-76
2022/03/08 01:33:39;;;;;;;2.25;0.80;;;-0.30;99.90;;;;;;5018810;28;20084;-76
2022/03/08 01:36:05;;;;;;;2.85;0.98;;;-0.40;99.90;;;;;;4992272;28;20045;-75
2022/03/08 01:38:31;;;;;;;2.45;0.90;;;-0.30;99.90;;;;;;5018499;28;20452;-76
2022/03/08 01:40:56;;;;;;;2.72;1.15;;;-0.20;99.90;;;;;;4995395;28;20033;-75
2022/03/08 01:43:22;;;;;;;3.25;1.08;;;-0.40;99.90;;;;;;5023281;28;20389;-76
2022/03/08 01:45:48;;;;;;;2.40;1.10;;;-0.40;99.90;;;;;;5019278;28;20506;-76
2022/03/08 01:48:14;;;;;;;3.08;0.95;;;-0.40;99.90;;;;;;5001862;28;20095;-75
2022/03/08 01:50:40;;;;;;;2.47;1.00;;;-0.30;99.90;;;;;;5018475;28;20037;-76
2022/03/08 01:53:06;;;;;;;2.38;0.90;;;-0.30;99.90;;;;;;5034073;28;20037;-75
2022/03/08 01:55:32;;;;;;;2.53;0.75;;;-0.50;99.90;;;;;;5020133;28;20075;-75
2022/03/08 01:57:58;;;;;;;2.47;0.77;;;-0.50;99.90;;;;;;5018256;28;20093;-76
2022/03/08 02:00:27;;;;;;;2.08;0.63;;;-0.50;99.90;;;;;;5016444;28;20079;-76
2022/03/08 02:02:54;;;;;;;2.43;0.90;;;-0.40;99.90;;;;;;5033865;28;20052;-75
2022/03/08 02:05:19;;;;;;;2.50;1.10;;;-0.40;99.90;;;;;;5011794;28;20029;-75
2022/03/08 02:07:45;;;;;;;1.92;0.80;;;-0.40;99.90;;;;;;5018591;28;20095;-75
2022/03/08 02:10:11;;;;;;;3.22;0.95;;;-0.40;99.90;;;;;;5001533;28;20029;-75
2022/03/08 02:12:37;;;;;;;4.15;1.10;;;-0.30;99.90;;;;;;5033463;28;20036;-75
2022/03/08 02:15:38;;;;;;;5.60;1.15;;;-0.30;99.90;;;;;;5011056;28;20021;-75
2022/03/08 02:18:04;;;;;;;2.85;1.00;;;-0.40;99.90;;;;;;4961530;28;20040;-75
2022/03/08 02:20:30;;;;;;;3.33;1.02;;;-0.40;99.90;;;;;;4945728;28;20050;-75
2022/03/08 02:22:57;;;;;;;1.95;0.80;;;-0.40;99.90;;;;;;4961551;28;20508;-76
2022/03/08 02:25:23;;;;;;;2.15;0.80;;;-0.50;99.90;;;;;;4944101;28;20727;-75
2022/03/08 02:27:53;;;;;;;3.53;1.00;;;-0.40;99.90;;;;;;4961493;28;20038;-75
2022/03/08 02:30:21;;;;;;;3.40;0.90;;;-0.40;99.90;;;;;;4977374;28;20556;-75
2022/03/08 02:32:47;;;;;;;2.65;0.95;;;-0.40;99.90;;;;;;4961104;28;20065;-75
2022/03/08 02:35:21;;;;;;;2.67;0.90;;;-0.40;99.90;;;;;;4960287;28;20037;-75
2022/03/08 02:37:50;;;;;;;2.65;1.00;;;-0.40;99.90;;;;;;4961135;28;20529;-75
2022/03/08 02:40:19;;;;;;;2.85;0.90;;;-0.50;99.90;;;;;;4960613;28;20049;-75
2022/03/08 02:42:45;;;;;;;1.75;0.65;;;-0.50;99.90;;;;;;4961843;28;20624;-75
2022/03/08 02:45:12;;;;;;;2.10;0.60;;;-0.50;99.90;;;;;;4977250;28;20034;-75
2022/03/08 02:47:38;;;;;;;1.77;0.63;;;-0.40;99.90;;;;;;4976255;28;20078;-75
2022/03/08 02:50:06;;;;;;;2.53;0.80;;;-0.40;99.90;;;;;;4977125;28;20031;-75
2022/03/08 02:52:33;;;;;;;2.28;0.90;;;-0.40;99.90;;;;;;4993895;28;20543;-75
2022/03/08 02:54:59;;;;;;;2.28;0.60;;;-0.40;99.90;;;;;;5016555;28;20116;-76
2022/03/08 02:57:24;;;;;;;2.10;0.70;;;-0.40;99.90;;;;;;5017087;28;20128;-75
2022/03/08 02:59:50;;;;;;;1.83;0.60;;;-0.40;99.90;;;;;;5032642;28;20075;-76
2022/03/08 03:02:16;;;;;;;2.95;0.50;;;-0.40;99.90;;;;;;5032758;28;20046;-76
2022/03/08 03:04:42;;;;;;;1.67;0.60;;;-0.40;99.90;;;;;;5000327;28;20363;-75
2022/03/08 03:07:07;;;;;;;2.97;0.60;;;-0.40;99.90;;;;;;5017550;28;20524;-75
2022/03/08 03:09:33;;;;;;;1.55;0.57;;;-0.40;99.90;;;;;;5010287;28;20057;-75
2022/03/08 03:12:00;;;;;;;1.33;0.50;;;-0.40;99.90;;;;;;5000641;28;20040;-75
2022/03/08 03:14:25;;;;;;;1.83;0.60;;;-0.50;99.90;;;;;;5010070;28;20045;-75
2022/03/08 03:16:51;;;;;;;1.60;0.52;;;-0.60;99.90;;;;;;5020442;28;20026;-76
2022/03/08 03:19:16;;;;;;;1.92;0.50;;;-0.70;99.90;;;;;;5010040;28;20170;-75
2022/03/08 03:21:42;;;;;;;2.13;0.50;;;-0.70;99.90;;;;;;5017612;28;20048;-76
2022/03/08 03:24:07;;;;;;;2.72;0.60;;;-0.80;99.90;;;;;;5032217;28;20417;-75
2022/03/08 03:26:33;;;;;;;1.58;0.50;;;-0.70;99.90;;;;;;5000415;28;20064;-75
2022/03/08 03:28:59;;;;;;;2.15;0.60;;;-0.90;99.90;;;;;;5001524;28;20037;-76
2022/03/08 03:31:24;;;;;;;2.55;0.50;;;-1.00;99.90;;;;;;5016777;28;20108;-75
2022/03/08 03:33:50;;;;;;;2.10;0.50;;;-1.00;99.90;;;;;;5016684;28;20037;-76
2022/03/08 03:36:15;;;;;;;1.88;0.47;;;-1.00;99.90;;;;;;5016454;28;20486;-75
2022/03/08 03:38:41;;;;;;;2.55;0.55;;;-0.90;99.90;;;;;;5009094;28;20489;-75
2022/03/08 03:41:07;;;;;;;1.45;0.60;;;-0.90;99.90;;;;;;5020830;28;20034;-75
2022/03/08 03:43:32;;;;;;;1.50;0.60;;;-1.00;99.90;;;;;;5017230;28;20687;-75
2022/03/08 03:45:58;;;;;;;1.25;0.55;;;-0.90;99.90;;;;;;5018751;28;20045;-75
2022/03/08 03:48:23;;;;;;;1.30;0.50;;;-0.90;99.90;;;;;;5015650;28;20425;-75
2022/03/08 03:50:49;;;;;;;2.38;0.73;;;-0.90;99.90;;;;;;5027037;28;20077;-75
2022/03/08 03:53:15;;;;;;;2.35;0.68;;;-0.90;99.90;;;;;;5021436;28;20072;-75
2022/03/08 03:55:40;;;;;;;1.48;0.55;;;-0.90;99.90;;;;;;5017149;28;20172;-75
2022/03/08 03:58:06;;;;;;;2.03;0.65;;;-0.90;99.90;;;;;;5009958;28;20045;-75
2022/03/08 04:00:31;;;;;;;1.33;0.50;;;-1.00;99.90;;;;;;5021145;28;20025;-75
2022/03/08 04:02:57;;;;;;;1.38;0.47;;;-0.90;99.90;;;;;;4988879;28;20065;-75
2022/03/08 04:05:23;;;;;;;1.92;0.50;;;-1.00;99.90;;;;;;5016569;28;20038;-75
2022/03/08 04:07:48;;;;;;;1.30;0.50;;;-1.00;99.90;;;;;;5016702;28;20505;-75
2022/03/08 04:10:16;;;;;;;1.70;0.60;;;-1.00;99.90;;;;;;5010201;28;20663;-75
2022/03/08 04:12:42;;;;;;;1.90;0.77;;;-1.00;99.90;;;;;;5032356;28;20041;-75
2022/03/08 04:15:09;;;;;;;2.35;0.80;;;-1.00;99.90;;;;;;5031362;28;20033;-75
2022/03/08 04:17:35;;;;;;;2.63;0.90;;;-0.90;99.90;;;;;;4999816;28;20042;-75
2022/03/08 04:20:03;;;;;;;3.33;1.40;;;-0.90;99.90;;;;;;5017066;28;20103;-75
2022/03/08 04:22:28;;;;;;;2.17;0.70;;;-0.90;99.90;;;;;;5016595;28;20529;-75
2022/03/08 04:24:54;;;;;;;1.38;0.60;;;-1.00;99.90;;;;;;5016685;28;20025;-76
2022/03/08 04:27:20;;;;;;;1.80;0.60;;;-0.90;99.90;;;;;;5014602;28;20063;-75
2022/03/08 04:29:45;;;;;;;1.75;0.70;;;-0.90;99.90;;;;;;5012227;28;20033;-75
2022/03/08 04:32:11;;;;;;;3.03;0.80;;;-1.00;99.90;;;;;;5019458;28;20033;-75
2022/03/08 04:34:37;;;;;;;2.53;0.70;;;-1.00;99.90;;;;;;5035352;28;20060;-75
2022/03/08 04:37:02;;;;;;;1.55;0.70;;;-0.90;99.90;;;;;;5024322;28;20474;-75
2022/03/08 04:39:28;;;;;;;4.90;0.75;;;-0.80;99.90;;;;;;5035141;28;20154;-75
2022/03/08 04:41:54;;;;;;;1.83;0.73;;;-0.90;99.90;;;;;;5012632;28;20401;-76
2022/03/08 04:44:19;;;;;;;2.22;1.08;;;-0.90;99.90;;;;;;5028235;28;20036;-75
2022/03/08 04:46:45;;;;;;;2.22;0.88;;;-0.90;99.90;;;;;;5011459;28;20660;-75
2022/03/08 04:49:11;;;;;;;2.05;0.75;;;-0.90;99.90;;;;;;5017612;28;20381;-74
2022/03/08 04:51:37;;;;;;;3.20;0.90;;;-0.70;99.90;;;;;;5019232;28;20029;-75
2022/03/08 04:54:03;;;;;;;2.28;0.90;;;-0.80;99.90;;;;;;5002961;28;20086;-75
2022/03/08 04:56:28;;;;;;;2.13;0.82;;;-0.70;99.90;;;;;;5011932;28;20584;-75
2022/03/08 04:58:56;;;;;;;2.38;0.85;;;-0.70;99.90;;;;;;5012640;28;20021;-75
2022/03/08 05:01:22;;;;;;;2.90;1.00;;;-0.60;99.90;;;;;;5018423;28;20438;-75
2022/03/08 05:03:49;;;;;;;2.38;0.88;;;-0.60;99.90;;;;;;5019976;28;20036;-75
2022/03/08 05:06:15;;;;;;;2.13;1.00;;;-0.70;99.90;;;;;;4996149;28;20040;-75
2022/03/08 05:08:41;;;;;;;2.35;0.90;;;-0.60;99.90;;;;;;5020254;28;20502;-75
2022/03/08 05:11:06;;;;;;;2.63;1.02;;;-0.70;99.90;;;;;;5019465;28;20082;-75
2022/03/08 05:13:32;;;;;;;6.60;1.10;;;-0.60;99.90;;;;;;5028461;28;20044;-75
2022/03/08 05:15:58;;;;;;;3.63;1.20;;;-0.60;99.90;;;;;;5019826;28;20146;-75
2022/03/08 05:18:23;;;;;;;3.80;1.50;;;-0.70;99.90;;;;;;5010889;28;20159;-75
2022/03/08 05:20:49;;;;;;;3.65;1.60;;;-0.70;99.90;;;;;;5034952;28;20380;-75
2022/03/08 05:23:15;;;;;;;3.90;1.40;;;-0.60;99.90;;;;;;5002292;28;20053;-75
2022/03/08 05:25:41;;;;;;;2.90;0.98;;;-0.60;99.90;;;;;;5019361;28;20469;-75
2022/03/08 05:28:07;;;;;;;2.13;0.90;;;-0.60;99.90;;;;;;5002698;28;20061;-75
2022/03/08 05:30:33;;;;;;;2.75;1.25;;;-0.60;99.90;;;;;;5023580;28;20553;-75
2022/03/08 05:32:59;;;;;;;2.33;1.00;;;-0.60;99.90;;;;;;5010882;28;20154;-75
2022/03/08 05:35:25;;;;;;;4.05;1.38;;;-0.60;99.90;;;;;;5028528;28;20075;-75
2022/03/08 05:37:50;;;;;;;4.10;1.77;;;-0.50;99.90;;;;;;4994492;28;20048;-75
2022/03/08 05:40:16;;;;;;;3.45;1.67;;;-0.60;99.90;;;;;;5017657;28;20029;-75
2022/03/08 05:42:43;;;;;;;3.42;1.08;;;-0.60;99.90;;;;;;5019470;28;20249;-75
2022/03/08 05:45:10;;;;;;;2.50;1.33;;;-0.70;99.90;;;;;;5019919;28;20068;-75
2022/03/08 05:47:38;;;;;;;2.80;1.00;;;-0.60;99.90;;;;;;5000671;28;20045;-75
2022/03/08 05:50:05;;;;;;;2.95;1.25;;;-0.60;99.90;;;;;;5013075;28;20025;-75
2022/03/08 05:52:30;;;;;;;3.67;1.50;;;-0.60;99.90;;;;;;5020065;28;20033;-75
2022/03/08 05:54:56;;;;;;;3.40;1.70;;;-0.60;99.90;;;;;;5012376;28;20038;-75
2022/03/08 05:57:22;;;;;;;2.95;1.63;;;-0.70;99.90;;;;;;5010871;28;20586;-75
2022/03/08 05:59:49;;;;;;;3.72;1.30;;;-0.60;99.90;;;;;;5024389;28;20470;-75
2022/03/08 06:02:16;;;;;;;2.13;1.00;;;-0.60;99.90;;;;;;5033423;28;20033;-75
2022/03/08 06:04:42;;;;;;;2.17;1.10;;;-0.70;99.90;;;;;;5016935;28;20037;-75
2022/03/08 06:07:08;;;;;;;4.78;1.65;;;-0.70;99.90;;;;;;5027312;28;20053;-75
2022/03/08 06:09:34;;;;;;;3.40;1.48;;;-0.70;99.90;;;;;;5010798;28;20116;-75
2022/03/08 06:12:03;;;;;;;3.33;1.50;;;-0.60;99.90;;;;;;5019727;28;20040;-75
2022/03/08 06:14:29;;;;;;;4.10;1.55;;;-0.70;99.90;;;;;;5027388;28;20040;-75
2022/03/08 06:16:55;;;;;;;3.35;1.02;;;-0.60;99.90;;;;;;5017605;28;20021;-77
2022/03/08 06:19:20;;;;;;;2.90;1.30;;;-0.70;99.90;;;;;;5001600;28;20415;-75
2022/03/08 06:21:46;;;;;;;4.05;1.75;;;-0.60;99.90;;;;;;5015152;28;20075;-76
2022/03/08 06:24:12;;;;;;;2.50;1.08;;;-0.60;99.90;;;;;;5001076;28;20025;-75
2022/03/08 06:26:38;;;;;;;4.03;1.90;;;-0.50;99.90;;;;;;5016743;28;20034;-76
2022/03/08 06:29:04;;;;;;;2.50;1.10;;;-0.60;99.90;;;;;;5010677;28;20080;-75
2022/03/08 06:31:30;;;;;;;3.13;1.33;;;-0.60;99.90;;;;;;5017191;28;20164;-75
2022/03/08 06:33:55;;;;;;;3.95;1.85;;;-0.60;99.90;;;;;;5027383;28;20033;-75
2022/03/08 06:36:21;;;;;;;3.80;1.55;;;-0.50;99.90;;;;;;5021610;28;20033;-75
2022/03/08 06:38:47;;;;;;;3.70;1.58;;;-0.40;99.90;;;;;;5019290;28;20493;-76
2022/03/08 06:41:12;;;;;;;2.90;1.52;;;-0.40;99.90;;;;;;5000525;28;20038;-76
2022/03/08 06:43:39;;;;;;;3.28;1.55;;;-0.40;99.90;;;;;;4980102;28;20092;-76
2022/03/08 06:46:05;;;;;;;4.80;2.58;;;-0.30;99.90;;;;;;5014782;28;20076;-75
2022/03/08 06:48:30;;;;;;;3.55;2.03;;;-0.30;99.90;;;;;;5019705;28;20483;-75
2022/03/08 06:50:56;;;;;;;2.47;0.80;;;-0.30;99.90;;;;;;5014091;28;20028;-75
2022/03/08 06:53:33;;;;;;;2.83;1.70;;;-0.20;99.90;;;;;;5028959;28;20216;-76
2022/03/08 06:55:59;;;;;;;2.90;1.38;;;-0.20;99.90;;;;;;5009796;28;20033;-75
2022/03/08 06:58:24;;;;;;;5.30;2.10;;;-0.10;99.90;;;;;;4997000;28;20516;-75
2022/03/08 07:00:50;;;;;;;3.10;2.03;;;0.00;99.90;;;;;;5007958;28;20156;-76
2022/03/08 07:03:16;;;;;;;3.95;1.60;;;0.00;99.90;;;;;;5014964;28;20219;-76
2022/03/08 07:05:41;;;;;;;3.88;1.70;;;0.10;99.90;;;;;;4991925;28;20036;-75
2022/03/08 07:08:07;;;;;;;4.15;1.50;;;0.20;99.90;;;;;;4996397;28;20049;-76
2022/03/08 07:10:33;;;;;;;4.63;2.50;;;0.30;99.90;;;;;;5008703;28;20033;-75
2022/03/08 07:12:58;;;;;;;2.83;1.30;;;0.40;99.90;;;;;;5015816;28;20360;-75
2022/03/08 07:15:24;;;;;;;2.45;1.15;;;0.50;99.90;;;;;;5025000;28;20097;-74
2022/03/08 07:17:51;;;;;;;4.35;1.80;;;0.60;99.90;;;;;;5010268;28;20124;-76
2022/03/08 07:20:17;;;;;;;3.88;1.50;;;0.60;99.90;;;;;;5021170;28;20075;-75
2022/03/08 07:22:45;;;;;;;3.60;1.48;;;0.70;99.90;;;;;;5009624;28;20415;-76
2022/03/08 07:25:11;;;;;;;4.43;2.22;;;0.80;99.90;;;;;;5008420;28;20091;-76
2022/03/08 07:27:37;;;;;;;5.72;2.30;;;0.90;99.90;;;;;;5031503;28;20365;-76
2022/03/08 07:30:05;;;;;;;3.70;1.80;;;1.00;99.90;;;;;;5015921;28;20108;-76
2022/03/08 07:32:31;;;;;;;4.28;1.45;;;1.10;99.90;;;;;;5018239;28;20064;-75
2022/03/08 07:34:56;;;;;;;3.75;1.95;;;1.10;99.90;;;;;;4988909;28;20029;-76
2022/03/08 07:37:23;;;;;;;3.88;1.60;;;1.10;99.90;;;;;;5021007;28;20029;-76
2022/03/08 07:39:49;;;;;;;3.88;1.55;;;1.20;99.90;;;;;;5024400;28;20437;-76
2022/03/08 07:42:14;;;;;;;3.33;2.05;;;1.20;99.90;;;;;;4995074;28;20021;-75
2022/03/08 07:44:41;;;;;;;3.47;1.98;;;1.30;99.90;;;;;;4992807;28;20077;-76
2022/03/08 07:47:08;;;;;;;4.18;1.65;;;1.30;99.90;;;;;;4998649;28;20438;-76
2022/03/08 07:49:34;;;;;;;4.57;2.33;;;1.30;99.90;;;;;;4992775;28;20026;-76
2022/03/08 07:52:00;;;;;;;4.43;2.30;;;1.40;99.90;;;;;;4984978;28;20256;-75
2022/03/08 07:54:26;;;;;;;5.18;1.83;;;1.60;99.90;;;;;;5006283;28;20034;-75
2022/03/08 07:56:51;;;;;;;3.45;1.65;;;1.70;99.90;;;;;;4992976;28;20112;-75
2022/03/08 07:59:17;;;;;;;5.28;2.10;;;1.80;99.90;;;;;;5015049;28;20314;-75
2022/03/08 08:01:43;;;;;;;3.00;1.77;;;2.00;99.90;;;;;;5011236;28;20033;-76
2022/03/08 08:04:08;;;;;;;3.92;2.03;;;2.10;99.90;;;;;;5018922;28;20437;-76
2022/03/08 08:06:34;;;;;;;4.82;2.17;;;2.20;99.90;;;;;;5010865;28;20036;-76
2022/03/08 08:09:00;;;;;;;7.00;2.65;;;2.30;99.90;;;;;;5019923;28;20033;-76
2022/03/08 08:11:25;;;;;;;5.30;3.10;;;2.60;99.90;;;;;;4995379;28;20490;-75
2022/03/08 08:13:53;;;;;;;5.10;2.75;;;2.70;99.90;;;;;;5016596;28;20025;-76
2022/03/08 08:16:19;;;;;;;4.15;2.65;;;2.80;99.90;;;;;;5002680;28;20032;-75
2022/03/08 08:18:44;;;;;;;4.63;2.30;;;2.90;99.90;;;;;;5018708;28;20033;-75
2022/03/08 08:21:10;;;;;;;3.92;2.67;;;2.90;99.90;;;;;;5019577;28;20045;-76
2022/03/08 08:23:36;;;;;;;4.75;2.60;;;3.10;99.90;;;;;;5011489;28;20123;-76
2022/03/08 08:26:01;;;;;;;2.83;1.58;;;3.20;99.90;;;;;;5011485;28;20029;-76
2022/03/08 08:28:27;;;;;;;4.32;1.90;;;3.40;99.90;;;;;;5010196;28;20123;-76
2022/03/08 08:30:53;;;;;;;3.20;2.00;;;3.40;99.90;;;;;;5018730;28;20377;-76
2022/03/08 08:33:19;;;;;;;3.53;2.08;;;3.50;99.90;;;;;;5017878;28;20064;-75
2022/03/08 08:35:44;;;;;;;4.45;2.70;;;3.70;99.90;;;;;;4998019;28;20025;-76
2022/03/08 08:38:10;;;;;;;5.40;2.63;;;3.80;99.90;;;;;;5018034;28;20033;-76
2022/03/08 08:40:36;;;;;;;2.65;1.52;;;3.90;99.90;;;;;;5020022;28;20034;-75
2022/03/08 08:43:05;;;;;;;4.88;2.10;;;4.00;99.90;;;;;;5027575;28;20030;-76
2022/03/08 08:45:31;;;;;;;4.57;2.15;;;4.20;99.90;;;;;;4985046;28;20197;-75
2022/03/08 08:47:57;;;;;;;3.58;2.13;;;4.40;99.90;;;;;;4995842;28;20163;-75
2022/03/08 08:50:23;;;;;;;4.18;2.33;;;4.50;99.90;;;;;;5018620;28;20072;-76
2022/03/08 08:52:49;;;;;;;3.55;2.45;;;4.50;99.90;;;;;;5018872;28;20108;-76
2022/03/08 08:55:14;;;;;;;4.22;2.60;;;4.60;99.90;;;;;;5010360;28;20497;-76
2022/03/08 08:57:40;;;;;;;3.80;2.28;;;4.70;99.90;;;;;;5018208;28;20059;-76
2022/03/08 09:00:07;;;;;;;3.30;1.88;;;4.80;99.90;;;;;;5018287;28;20041;-76
2022/03/08 09:02:34;;;;;;;3.53;1.85;;;5.00;99.90;;;;;;5011513;28;20034;-76
2022/03/08 09:05:00;;;;;;;2.97;2.00;;;5.10;99.90;;;;;;5016661;28;20104;-76
2022/03/08 09:07:25;;;;;;;3.72;1.73;;;5.10;99.90;;;;;;5018166;28;20041;-76
2022/03/08 09:09:51;;;;;;;3.53;1.90;;;5.30;99.90;;;;;;5010916;28;20025;-77
2022/03/08 09:12:17;;;;;;;2.97;1.35;;;5.50;99.90;;;;;;5016652;28;20476;-77
2022/03/08 09:14:42;;;;;;;4.15;2.10;;;5.60;99.90;;;;;;5015784;28;20022;-76
2022/03/08 09:17:08;;;;;;;4.35;1.52;;;5.80;99.90;;;;;;5016174;28;20563;-76
2022/03/08 09:19:34;;;;;;;3.25;1.52;;;5.90;99.90;;;;;;5017472;28;20025;-76
2022/03/08 09:22:00;;;;;;;2.88;1.48;;;6.00;99.90;;;;;;5027393;28;20029;-76
2022/03/08 09:24:26;;;;;;;3.95;2.38;;;6.10;99.90;;;;;;5014042;28;20553;-78
2022/03/08 09:26:52;;;;;;;3.60;1.92;;;6.10;99.90;;;;;;5026874;28;20087;-77
2022/03/08 09:29:18;;;;;;;4.28;1.75;;;6.20;99.90;;;;;;5011786;28;20044;-77
2022/03/08 09:31:44;;;;;;;3.25;1.40;;;6.40;99.90;;;;;;5000229;28;20038;-77
2022/03/08 09:34:12;;;;;;;2.85;1.48;;;6.50;99.90;;;;;;5016268;28;20393;-77
2022/03/08 09:36:37;;;;;;;2.67;1.80;;;6.60;99.90;;;;;;5010436;28;20030;-77
2022/03/08 09:39:06;;;;;;;3.47;1.63;;;6.70;99.90;;;;;;5021013;28;20068;-76
2022/03/08 09:41:32;;;;;;;4.13;1.70;;;6.80;99.90;;;;;;5022385;28;20048;-76
2022/03/08 09:44:00;;;;;;;3.22;1.88;;;6.90;99.90;;;;;;4984454;28;20095;-77
2022/03/08 09:46:25;;;;;;;2.92;1.80;;;6.90;99.90;;;;;;5016060;28;20041;-77
2022/03/08 09:48:51;;;;;;;3.88;2.13;;;7.00;99.90;;;;;;4999258;28;20068;-77
2022/03/08 09:51:17;;;;;;;2.30;1.30;;;7.10;99.90;;;;;;4995509;28;20478;-77
2022/03/08 09:53:51;;;;;;;3.58;1.10;;;7.30;99.90;;;;;;5020090;28;20041;-77
2022/03/08 09:56:19;;;;;;;4.25;2.53;;;7.30;99.90;;;;;;4994493;28;20036;-78
2022/03/08 09:58:44;;;;;;;4.07;2.58;;;7.20;99.90;;;;;;5016037;28;20087;-77
2022/03/08 10:01:10;;;;;;;4.05;2.13;;;7.30;99.90;;;;;;5015508;28;20041;-77
2022/03/08 10:03:39;;;;;;;3.60;1.50;;;7.50;99.90;;;;;;5020677;28;20024;-77
2022/03/08 10:06:06;;;;;;;3.05;1.83;;;7.60;99.90;;;;;;4993655;28;20343;-77
2022/03/08 10:08:32;;;;;;;3.53;1.83;;;7.70;99.90;;;;;;5016714;28;20046;-77
2022/03/08 10:11:09;;;;;;;2.55;1.23;;;7.70;99.90;;;;;;5017155;28;20117;-77
2022/03/08 10:13:40;;;;;;;2.88;1.52;;;7.90;99.90;;;;;;5017243;28;20049;-77
2022/03/08 10:16:08;;;;;;;4.35;1.95;;;8.00;99.90;;;;;;5010982;28;20102;-77
2022/03/08 10:18:39;;;;;;;2.35;1.52;;;8.00;99.90;;;;;;4995360;28;20076;-77
2022/03/08 10:21:09;;;;;;;3.60;1.48;;;7.90;99.90;;;;;;4995414;28;20029;-77
2022/03/08 10:23:41;;;;;;;;;;;8.20;99.90;;;;;;5009862;28;20029;-77
2022/03/08 10:26:11;;;;;;;2.58;1.60;;;8.20;99.90;;;;;;5010137;28;19916;-77
2022/03/08 10:28:48;;;;;;;2.88;1.35;;;8.40;99.90;;;;;;5011843;28;20083;-77
2022/03/08 10:31:14;;;;;;;1.80;0.80;;;8.50;99.90;;;;;;5016086;28;20037;-77
2022/03/08 10:33:40;;;;;;;2.58;1.13;;;8.90;99.90;;;;;;5021326;28;20033;-77
2022/03/08 10:36:22;;;;;;;3.30;1.60;;;8.90;99.90;;;;;;5031962;28;20027;-77
2022/03/08 10:39:11;;;;;;;2.97;1.02;;;8.80;99.90;;;;;;4992501;28;20139;-78
2022/03/08 10:41:50;;;;;;;3.70;1.30;;;8.90;99.90;;;;;;4998500;28;20033;-77
2022/03/08 10:44:28;;;;;;;3.22;1.00;;;9.00;99.90;;;;;;4967902;28;20450;-78
2022/03/08 10:47:05;;;;;;;2.95;1.00;;;9.10;99.90;;;;;;4993291;28;20111;-77
2022/03/08 10:49:32;;;;;;;3.45;1.42;;;9.10;99.90;;;;;;5032677;28;20072;-77
2022/03/08 10:52:05;;;;;;;3.97;1.40;;;9.20;99.90;;;;;;4998988;28;20033;-77
2022/03/08 10:54:32;;;;;;;2.22;1.38;;;9.30;99.90;;;;;;5032860;28;20034;-78
2022/03/08 10:56:58;;;;;;;2.20;0.90;;;9.40;99.90;;;;;;5008299;28;20087;-77
2022/03/08 10:59:24;;;;;;;3.88;1.02;;;9.50;99.90;;;;;;4999751;28;20848;-77
2022/03/08 11:01:50;;;;;;;2.20;0.75;;;9.60;99.90;;;;;;5013625;28;20057;-77
2022/03/08 11:04:18;;;;;;;2.10;0.60;;;9.60;99.90;;;;;;5006770;28;20045;-77
2022/03/08 11:06:45;;;;;;;1.48;0.50;;;9.70;99.90;;;;;;5014284;28;20033;-77
2022/03/08 11:09:10;;;;;;;2.25;0.77;;;9.60;99.90;;;;;;4993931;28;20516;-77
2022/03/08 11:11:37;;;;;;;1.60;0.70;;;9.60;99.90;;;;;;4997795;28;20041;-77
2022/03/08 11:14:04;;;;;;;1.80;0.80;;;9.60;99.80;;;;;;5018432;28;20029;-77
2022/03/08 11:16:31;;;;;;;1.90;0.93;;;9.60;99.60;;;;;;5014222;28;20033;-79
2022/03/08 11:18:57;;;;;;;1.52;0.80;;;9.50;98.10;;;;;;4991649;28;20065;-77
2022/03/08 11:21:23;;;;;;;2.75;0.60;;;9.60;99.90;;;;;;5025688;28;20057;-77
2022/03/08 11:23:51;;;;;;;1.17;0.50;;;9.70;99.00;;;;;;5024519;28;20102;-77
2022/03/08 11:26:17;;;;;;;1.45;0.60;;;10.00;99.50;;;;;;4991480;28;20057;-77
2022/03/08 11:28:48;;;;;;;1.65;0.60;;;10.20;99.40;;;;;;5025241;28;20049;-77
2022/03/08 11:31:17;;;;;;;;;;;10.30;98.90;;;;;;5032324;28;20128;-77
2022/03/08 11:33:58;;;;;;;1.67;0.70;;;10.10;98.20;;;;;;5030192;28;19917;-77
2022/03/08 11:36:38;;;;;;;1.70;0.70;;;9.90;98.90;;;;;;5007576;28;20048;-78
2022/03/08 11:39:18;;;;;;;2.08;0.80;;;9.90;98.60;;;;;;5011564;28;20038;-78
2022/03/08 11:41:48;;;;;;;1.85;0.70;;;10.10;98.30;;;;;;5018509;28;20029;-77
2022/03/08 11:44:24;;;;;;;3.45;0.80;;;10.10;98.00;;;;;;4991182;28;20067;-77
2022/03/08 11:47:01;;;;;;;1.08;0.50;;;10.20;99.20;;;;;;5012142;28;20148;-77
2022/03/08 11:49:50;;;;;;;4.30;1.50;;;10.60;99.30;;;;;;5031429;28;20034;-77
2022/03/08 11:52:18;;;;;;;2.35;0.60;;;10.40;98.50;;;;;;5017514;28;20546;-78
2022/03/08 11:55:13;;;;;;;1.23;0.60;;;10.80;99.50;;;;;;5015138;28;20144;-77
2022/03/08 11:57:48;;;;;;;1.30;0.50;;;11.00;98.80;;;;;;5003464;28;20089;-77
2022/03/08 12:00:38;;;;;;;1.30;0.60;;;10.90;97.80;;;;;;5016632;28;20053;-77
2022/03/08 12:03:26;;;;;;;2.35;0.60;;;10.60;97.70;;;;;;5000530;28;20067;-77
2022/03/08 12:05:55;;;;;;;3.40;0.90;;;10.80;97.40;;;;;;5030511;28;20041;-77
2022/03/08 12:08:29;;;;;;;1.50;0.70;;;10.50;96.60;;;;;;4993793;28;20107;-77
2022/03/08 12:11:03;;;;;;;1.50;0.52;;;10.80;98.00;;;;;;5018195;28;20029;-76
2022/03/08 12:13:34;;;;;;;2.17;0.70;;;11.00;96.50;;;;;;5016022;28;20029;-77
2022/03/08 12:16:09;;;;;;;1.50;0.70;;;10.90;97.20;;;;;;5011400;28;20435;-77
2022/03/08 12:18:41;;;;;;;4.15;0.90;;;10.70;96.70;;;;;;5009803;28;20029;-76
2022/03/08 12:21:16;;;;;;;2.13;0.82;;;10.80;96.60;;;;;;4994040;28;20119;-77
2022/03/08 12:24:16;;;;;;;1.88;0.70;;;10.80;95.40;;;;;;5011996;28;20673;-77
2022/03/08 12:26:48;;;;;;;1.75;0.70;;;10.70;95.50;;;;;;4995247;28;20077;-77
2022/03/08 12:29:17;;;;;;;2.70;1.05;;;10.70;95.60;;;;;;4996040;28;20168;-76
2022/03/08 12:31:58;;;;;;;3.53;1.13;;;10.70;95.90;;;;;;5017904;28;20056;-77
2022/03/08 12:34:33;;;;;;;1.83;0.85;;;11.00;95.90;;;;;;4994908;28;20159;-76
2022/03/08 12:37:09;;;;;;;2.75;0.95;;;11.00;94.80;;;;;;5011270;28;20065;-77
2022/03/08 12:39:59;;;;;;;2.85;0.88;;;10.90;94.60;;;;;;5026576;28;20029;-77
2022/03/08 12:42:32;;;;;;;3.15;0.60;;;11.00;95.30;;;;;;5009844;28;20119;-76
2022/03/08 12:45:10;;;;;;;2.15;0.60;;;11.20;95.90;;;;;;5020463;28;20050;-77
2022/03/08 12:47:51;;;;;;;2.47;0.80;;;11.20;95.90;;;;;;4994444;28;20049;-77
2022/03/08 12:50:30;;;;;;;1.30;0.60;;;11.10;94.90;;;;;;5001222;28;20466;-77
2022/03/08 12:53:10;;;;;;;3.00;0.90;;;11.30;95.90;;;;;;4998617;28;20405;-77
2022/03/08 12:55:39;;;;;;;1.90;0.77;;;11.30;94.90;;;;;;5007824;28;20040;-77